Terminal Aerodrome Forecast
Issued by NWS Blacksburg, VA

Current Version | Previous Version | Graphics & Text | Print | Product List | Glossary On
Versions: 1 2 3 4 5 6 7 8 9 10 11 12 13 14 15 16 17 18
000
FTUS41 KRNK 211730
TAFBLF
TAF
KBLF 211730Z 2118/2218 22011KT P6SM BKN200
     FM212300 20007KT P6SM SCT050
     FM220400 22004KT P6SM BKN020
     FM220800 28006KT P6SM BKN040
     FM221400 31009KT P6SM SCT035=

USA.gov is the U.S. government's official web portal to all federal, state and local government web resources and services.